Time;durP1;ratioP1;P1;durP2;ratioP2;P2;SDS_P1;SDS_P2;PMS_P1;PMS_P2;Temp;Humidity;BMP_temperature;BMP_pressure;BME280_temperature;BME280_humidity;BME280_pressure;Samples;Min_cycle;Max_cycle;Signal;HPM_P1;HPM_P2
2022/12/21 00:01:27;;;;;;;;;1.00;0.00;;;;;-1.28;91.86;98675.13;4916958;28;102309;-77
2022/12/21 00:04:00;;;;;;;;;0.00;0.00;;;;;-1.30;92.12;98674.41;4918550;28;104391;-76
2022/12/21 00:06:30;;;;;;;;;1.00;1.00;;;;;-1.35;93.00;98666.81;4921982;28;102148;-77
2022/12/21 00:09:01;;;;;;;;;1.50;1.00;;;;;-1.38;93.81;98669.75;4919943;28;102224;-77
2022/12/21 00:11:31;;;;;;;;;1.00;0.00;;;;;-1.38;93.85;98679.50;4911495;28;102347;-76
2022/12/21 00:13:59;;;;;;;;;3.33;1.00;;;;;-1.43;93.94;98676.38;4923806;28;103988;-77
2022/12/21 00:16:29;;;;;;;;;1.00;1.00;;;;;-1.46;93.13;98671.31;4914782;28;102443;-76
2022/12/21 00:18:58;;;;;;;;;1.33;1.00;;;;;-1.49;93.96;98668.94;4922573;28;102347;-76
2022/12/21 00:21:30;;;;;;;;;1.00;1.00;;;;;-1.49;93.08;98672.44;4919822;28;103936;-76
2022/12/21 00:23:58;;;;;;;;;1.00;0.67;;;;;-1.48;93.36;98665.28;4899441;28;104023;-76
2022/12/21 00:26:30;;;;;;;;;0.25;0.25;;;;;-1.49;93.94;98658.31;4922262;28;102389;-77
2022/12/21 00:28:58;;;;;;;;;4.00;2.00;;;;;-1.58;92.02;98657.25;4924818;28;102345;-77
2022/12/21 00:31:28;;;;;;;;;5.00;2.00;;;;;-1.53;92.91;98648.94;4932680;28;102580;-76
2022/12/21 00:33:56;;;;;;;;;2.00;0.33;;;;;-1.54;94.12;98647.25;4930903;28;104181;-76
2022/12/21 00:36:26;;;;;;;;;2.00;2.00;;;;;-1.53;93.94;98641.00;4930391;28;102061;-77
2022/12/21 00:38:53;;;;;;;;;1.00;1.00;;;;;-1.55;92.38;98632.31;4936480;28;102259;-76
2022/12/21 00:41:22;;;;;;;;;4.00;1.00;;;;;-1.54;92.98;98639.28;4928409;28;102225;-76
2022/12/21 00:43:52;;;;;;;;;3.33;2.00;;;;;-1.53;92.28;98636.50;4925281;28;104241;-76
2022/12/21 00:46:29;;;;;;;;;4.00;1.00;;;;;-1.63;92.92;98635.59;4930988;28;102424;-76
2022/12/21 00:49:01;;;;;;;;;0.67;0.67;;;;;-1.52;93.97;98659.41;4937649;28;102370;-77
2022/12/21 00:51:30;;;;;;;;;2.00;2.00;;;;;-1.52;93.76;98656.75;4928123;28;102142;-77
2022/12/21 00:53:58;;;;;;;;;1.33;1.00;;;;;-1.59;90.38;98652.06;4911121;28;104029;-77
2022/12/21 00:56:26;;;;;;;;;4.33;4.00;;;;;-1.57;91.94;98650.13;4935992;28;102311;-76
2022/12/21 00:58:53;;;;;;;;;2.00;1.00;;;;;-1.56;93.03;98649.16;4927657;28;102149;-77
2022/12/21 01:01:24;;;;;;;;;4.67;2.00;;;;;-1.57;92.98;98644.81;4922737;28;102462;-76
2022/12/21 01:03:52;;;;;;;;;3.33;2.00;;;;;-1.59;94.11;98630.88;4922000;28;104060;-77
2022/12/21 01:06:28;;;;;;;;;2.00;1.00;;;;;-1.65;92.62;98629.56;4919918;28;102422;-74
2022/12/21 01:08:56;;;;;;;;;2.67;1.33;;;;;-1.66;91.93;98629.66;4919809;28;103150;-76
2022/12/21 01:11:24;;;;;;;;;2.00;1.00;;;;;-1.71;92.72;98626.56;4919921;28;102269;-76
2022/12/21 01:13:52;;;;;;;;;1.25;1.00;;;;;-1.61;92.41;98660.16;4926090;28;104261;-76
2022/12/21 01:16:22;;;;;;;;;2.00;1.00;;;;;-1.61;93.23;98649.53;4920524;28;102142;-75
2022/12/21 01:18:50;;;;;;;;;1.00;0.00;;;;;-1.58;93.72;98637.88;4915445;28;103127;-77
2022/12/21 01:21:22;;;;;;;;;1.00;1.00;;;;;-1.57;93.77;98629.75;4922287;28;102087;-78
2022/12/21 01:23:50;;;;;;;;;0.67;0.00;;;;;-1.56;94.19;98628.81;4927240;28;108797;-77
2022/12/21 01:26:17;;;;;;;;;0.67;0.67;;;;;-1.56;92.38;98612.91;4922883;28;102387;-77
2022/12/21 01:28:44;;;;;;;;;1.00;1.00;;;;;-1.57;94.07;98592.66;4923230;28;102191;-77
2022/12/21 01:31:12;;;;;;;;;1.67;0.67;;;;;-1.63;92.63;98592.34;4921253;28;102356;-76
2022/12/21 01:33:39;;;;;;;;;10.33;7.67;;;;;-1.73;91.11;98588.72;4933352;28;103992;-75
2022/12/21 01:36:08;;;;;;;;;6.67;4.33;;;;;-1.65;93.59;98596.91;4933841;28;102359;-76
2022/12/21 01:38:39;;;;;;;;;7.00;4.67;;;;;-1.77;91.53;98595.25;4926504;28;103328;-76
2022/12/21 01:41:19;;;;;;;;;5.00;4.00;;;;;-1.90;91.25;98588.31;4923907;28;101982;-77
2022/12/21 01:43:59;;;;;;;;;2.00;2.00;;;;;-1.81;91.88;98602.63;4936108;28;108911;-77
2022/12/21 01:46:42;;;;;;;;;4.33;2.00;;;;;-1.88;92.94;98578.41;4936783;28;102312;-77
2022/12/21 01:49:26;;;;;;;;;1.00;1.00;;;;;-1.85;92.85;98599.34;4928910;28;102436;-78
2022/12/21 01:52:02;;;;;;;;;5.00;1.00;;;;;-1.85;93.33;98598.53;4931024;28;103324;-77
2022/12/21 01:54:39;;;;;;;;;2.00;1.00;;;;;-1.86;93.52;98597.69;4936297;28;104182;-77
2022/12/21 01:57:10;;;;;;;;;0.33;0.33;;;;;-1.89;93.91;98605.84;4937103;28;102281;-77
2022/12/21 01:59:42;;;;;;;;;2.00;1.33;;;;;-1.90;94.27;98601.56;4930763;28;102349;-77
2022/12/21 02:02:21;;;;;;;;;0.00;0.00;;;;;-1.90;94.12;98595.41;4930214;28;101842;-78
2022/12/21 02:04:50;;;;;;;;;1.00;1.00;;;;;-1.92;94.48;98587.56;4917900;28;108843;-78
2022/12/21 02:07:19;;;;;;;;;1.33;1.00;;;;;-1.96;94.44;98599.38;4921303;28;102471;-78
2022/12/21 02:09:55;;;;;;;;;1.67;1.00;;;;;-2.04;92.18;98591.22;4929074;28;102863;-77
2022/12/21 02:12:44;;;;;;;;;2.00;1.00;;;;;-2.02;93.35;98586.63;4919489;28;104369;-77
2022/12/21 02:15:42;;;;;;;;;0.00;0.00;;;;;-2.04;93.44;98580.63;4922267;28;107759;-77
2022/12/21 02:18:49;;;;;;;;;0.00;0.00;;;;;-2.04;94.15;98593.00;4925075;28;102089;-78
2022/12/21 02:21:57;;;;;;;;;0.00;0.00;;;;;-2.06;93.83;98579.88;4916195;28;102573;-77
2022/12/21 02:24:50;;;;;;;;;0.33;0.33;;;;;-2.06;94.21;98574.59;4936485;28;102248;-78
2022/12/21 02:28:02;;;;;;;;;1.67;1.00;;;;;-2.20;92.87;98571.34;4909301;28;107637;-78
2022/12/21 02:30:46;;;;;;;;;17.67;11.00;;;;;-2.31;92.75;98565.13;4914552;28;102114;-79
2022/12/21 02:33:26;;;;;;;;;12.33;8.67;;;;;-2.36;90.69;98555.84;4918426;28;102140;-75
2022/12/21 02:35:59;;;;;;;;;24.33;18.00;;;;;-2.46;90.65;98542.50;4920534;28;102251;-78
2022/12/21 02:38:38;;;;;;;;;15.33;14.00;;;;;-2.45;92.37;98524.81;4917831;28;104358;-76
2022/12/21 02:41:22;;;;;;;;;22.33;17.67;;;;;-2.41;92.84;98520.97;4916473;28;102395;-76
2022/12/21 02:44:13;;;;;;;;;23.67;16.67;;;;;-2.43;91.24;98544.09;4922608;28;102277;-76
2022/12/21 02:47:11;;;;;;;;;12.00;10.33;;;;;-2.32;92.52;98552.00;4917543;28;110453;-76
2022/12/21 02:49:46;;;;;;;;;14.00;7.67;;;;;-2.23;94.37;98559.22;4916143;28;108699;-76
2022/12/21 02:52:35;;;;;;;;;4.67;4.67;;;;;-2.18;94.62;98558.84;4911972;28;102106;-76
2022/12/21 02:55:02;;;;;;;;;6.33;4.33;;;;;-2.40;94.47;98517.34;4918142;28;102468;-76
2022/12/21 02:57:36;;;;;;;;;4.00;3.33;;;;;-2.14;94.27;98547.88;4919635;28;101905;-76
2022/12/21 03:00:08;;;;;;;;;4.00;2.00;;;;;-2.01;94.30;98559.16;4920679;28;104058;-75
2022/12/21 03:02:44;;;;;;;;;1.00;0.33;;;;;-1.98;93.75;98552.81;4920504;28;102321;-76
2022/12/21 03:05:43;;;;;;;;;3.33;2.00;;;;;-1.94;94.23;98560.38;4914547;28;102199;-76
2022/12/21 03:08:19;;;;;;;;;2.00;2.00;;;;;-1.92;93.59;98569.03;4920768;28;102812;-75
2022/12/21 03:11:00;;;;;;;;;1.00;1.00;;;;;-1.88;93.23;98551.91;4914201;28;108685;-76
2022/12/21 03:13:35;;;;;;;;;1.33;0.33;;;;;-1.83;92.96;98556.84;4913511;28;102145;-76
2022/12/21 03:16:14;;;;;;;;;1.00;1.00;;;;;-1.82;92.62;98564.66;4918641;28;102236;-76
2022/12/21 03:19:05;;;;;;;;;1.00;1.00;;;;;-1.80;93.24;98553.94;4921835;28;102407;-76
2022/12/21 03:21:55;;;;;;;;;1.00;1.00;;;;;-1.78;92.14;98567.91;4921569;28;109137;-76
2022/12/21 03:24:29;;;;;;;;;1.00;1.00;;;;;-1.73;91.65;98571.03;4929350;28;102080;-76
2022/12/21 03:27:01;;;;;;;;;6.33;3.33;;;;;-1.71;92.29;98563.78;4926234;28;102206;-76
2022/12/21 03:29:37;;;;;;;;;6.33;4.00;;;;;-1.68;91.38;98552.94;4920496;28;102226;-76
2022/12/21 03:32:16;;;;;;;;;1.33;1.33;;;;;-1.64;92.70;98545.56;4931923;28;103672;-77
2022/12/21 03:34:48;;;;;;;;;1.00;1.00;;;;;-1.62;91.50;98552.41;4898569;28;101965;-76
2022/12/21 03:37:23;;;;;;;;;1.00;1.00;;;;;-1.59;92.64;98556.66;4933638;28;110559;-76
2022/12/21 03:39:56;;;;;;;;;4.00;4.00;;;;;-1.57;91.72;98560.84;4921746;28;102053;-76
2022/12/21 03:42:35;;;;;;;;;1.00;1.00;;;;;-1.53;92.39;98551.66;4923909;28;108360;-76
2022/12/21 03:45:10;;;;;;;;;1.67;1.00;;;;;-1.51;92.35;98551.53;4939235;28;102400;-75
2022/12/21 03:47:56;;;;;;;;;1.67;1.00;;;;;-1.50;90.87;98554.09;4935172;28;102329;-75
2022/12/21 03:50:28;;;;;;;;;1.00;0.67;;;;;-1.48;92.15;98561.88;4925018;28;102375;-75
2022/12/21 03:53:08;;;;;;;;;4.67;1.00;;;;;-1.46;92.33;98557.31;4914265;28;104031;-76
2022/12/21 03:55:40;;;;;;;;;0.00;0.00;;;;;-1.51;91.80;98546.25;4938018;28;102442;-78
2022/12/21 03:58:07;;;;;;;;;1.00;1.00;;;;;-1.44;92.75;98566.00;4939671;28;102285;-76
2022/12/21 04:00:47;;;;;;;;;0.00;0.00;;;;;-1.45;92.91;98554.53;4922203;28;102211;-75
2022/12/21 04:03:27;;;;;;;;;0.67;0.67;;;;;-1.46;92.01;98567.91;4919771;28;104063;-76
2022/12/21 04:06:01;;;;;;;;;0.00;0.00;;;;;-1.48;92.33;98557.44;4919663;28;102358;-75
2022/12/21 04:08:30;;;;;;;;;3.33;1.00;;;;;-1.51;92.33;98564.81;4920328;28;102046;-77
2022/12/21 04:10:57;;;;;;;;;1.33;0.00;;;;;-1.51;91.61;98559.50;4915295;28;102006;-76
2022/12/21 04:13:24;;;;;;;;;1.00;0.00;;;;;-1.53;92.51;98556.16;4929801;28;104025;-76
2022/12/21 04:16:03;;;;;;;;;0.00;0.00;;;;;-1.54;93.51;98551.81;4923666;28;103735;-74
2022/12/21 04:21:20;;;;;;;;;1.33;1.00;;;;;-1.62;92.95;98527.75;4914815;28;102382;-77
2022/12/21 04:29:17;;;;;;;;;1.00;1.00;;;;;-1.58;92.82;98551.22;4916256;28;103244;-76
2022/12/21 04:31:44;;;;;;;;;1.00;1.00;;;;;-1.53;94.29;98532.28;4919499;28;102356;-77
2022/12/21 04:34:11;;;;;;;;;1.00;1.00;;;;;-1.49;94.21;98541.66;4920519;28;104092;-76
2022/12/21 04:39:24;;;;;;;;;1.00;0.00;;;;;-1.44;93.06;98544.78;4918446;28;102256;-76
2022/12/21 04:41:51;;;;;;;;;1.00;0.00;;;;;-1.42;92.82;98548.97;4925588;28;106529;-77
2022/12/21 04:44:18;;;;;;;;;1.33;0.00;;;;;-1.39;93.81;98553.16;4927388;28;108604;-76
2022/12/21 04:46:45;;;;;;;;;2.00;2.00;;;;;-1.33;93.51;98547.38;4916917;28;103422;-76
2022/12/21 04:49:12;;;;;;;;;3.00;2.67;;;;;-1.28;92.37;98542.53;4921697;28;102044;-77
2022/12/21 04:51:38;;;;;;;;;1.67;1.67;;;;;-1.19;92.29;98548.88;4917869;28;103044;-76
2022/12/21 04:54:06;;;;;;;;;2.00;1.00;;;;;-1.14;93.02;98552.81;4919793;28;104036;-76
2022/12/21 04:56:33;;;;;;;;;5.00;4.00;;;;;-1.07;92.38;98556.63;4917308;28;102213;-76
2022/12/21 04:58:59;;;;;;;;;3.33;2.00;;;;;-1.04;91.62;98551.09;4925580;28;102232;-77
2022/12/21 05:01:26;;;;;;;;;0.00;0.00;;;;;-0.95;91.72;98550.31;4915691;28;102175;-76
2022/12/21 05:03:56;;;;;;;;;4.00;3.33;;;;;-0.87;92.05;98559.41;4914481;28;104187;-77
2022/12/21 05:06:23;;;;;;;;;2.00;2.00;;;;;-0.80;91.50;98555.25;4929015;28;101953;-77
2022/12/21 05:08:50;;;;;;;;;2.00;1.67;;;;;-0.79;91.38;98554.28;4923727;28;103219;-76
2022/12/21 05:11:23;;;;;;;;;4.67;4.00;;;;;-0.74;91.63;98541.47;4916344;28;102243;-77
2022/12/21 05:13:50;;;;;;;;;5.00;4.00;;;;;-0.69;90.78;98553.38;4916792;28;108560;-77
2022/12/21 05:16:23;;;;;;;;;1.33;1.33;;;;;-0.64;90.87;98550.31;4927952;28;103368;-77
2022/12/21 05:18:52;;;;;;;;;2.67;1.00;;;;;-0.63;90.75;98558.13;4901110;28;102681;-76
2022/12/21 05:21:20;;;;;;;;;2.50;2.50;;;;;-0.61;90.54;98539.44;4923837;28;102414;-77
2022/12/21 05:23:47;;;;;;;;;1.00;0.25;;;;;-0.65;90.34;98541.50;4923955;28;108673;-76
2022/12/21 05:26:15;;;;;;;;;2.00;1.00;;;;;-0.57;90.49;98546.16;4921841;28;103111;-76
2022/12/21 05:28:44;;;;;;;;;1.00;0.50;;;;;-0.55;90.44;98546.88;4918945;28;102288;-77
2022/12/21 05:31:12;;;;;;;;;1.67;1.00;;;;;-0.55;90.81;98554.84;4919652;28;102297;-76
2022/12/21 05:33:39;;;;;;;;;3.00;1.00;;;;;-0.53;91.26;98545.75;4914745;28;104279;-77
2022/12/21 05:36:09;;;;;;;;;1.50;1.50;;;;;-0.60;90.63;98531.34;4913392;28;102194;-76
2022/12/21 05:38:37;;;;;;;;;4.75;2.00;;;;;-0.50;90.71;98542.00;4917009;28;109688;-76
2022/12/21 05:41:04;;;;;;;;;4.33;4.00;;;;;-0.47;90.54;98555.00;4925196;28;102229;-76
2022/12/21 05:43:31;;;;;;;;;2.00;2.00;;;;;-0.42;90.88;98558.13;4920186;28;104138;-76
2022/12/21 05:46:04;;;;;;;;;6.50;4.25;;;;;-0.36;90.67;98549.59;4923610;28;102342;-76
2022/12/21 05:48:32;;;;;;;;;4.50;2.00;;;;;-0.31;90.64;98547.38;4926230;28;102354;-76
2022/12/21 05:51:04;;;;;;;;;3.33;2.00;;;;;-0.28;90.02;98535.66;4924945;28;101867;-76
2022/12/21 05:53:31;;;;;;;;;2.50;2.00;;;;;-0.23;90.10;98536.94;4907752;28;104018;-76
2022/12/21 05:55:58;;;;;;;;;3.00;2.00;;;;;-0.18;90.38;98539.19;4920219;28;102481;-76
2022/12/21 05:58:25;;;;;;;;;2.00;1.25;;;;;-0.15;90.62;98536.25;4917785;28;102862;-75
2022/12/21 06:00:52;;;;;;;;;2.00;2.00;;;;;-0.16;90.35;98530.09;4917689;28;102397;-75
2022/12/21 06:03:20;;;;;;;;;3.50;1.75;;;;;-0.06;90.42;98538.94;4916015;28;104055;-76
2022/12/21 06:05:48;;;;;;;;;8.00;4.00;;;;;-0.03;90.13;98533.34;4912854;28;102168;-77
2022/12/21 06:08:14;;;;;;;;;2.00;2.00;;;;;0.00;90.22;98530.41;4909207;28;102051;-77
2022/12/21 06:10:41;;;;;;;;;2.00;2.00;;;;;-0.02;90.08;98532.38;4923421;28;102075;-77
2022/12/21 06:13:08;;;;;;;;;3.00;1.50;;;;;0.05;90.38;98522.03;4915440;28;103942;-77
2022/12/21 06:15:35;;;;;;;;;2.00;2.00;;;;;0.09;91.31;98522.63;4921696;28;104735;-78
2022/12/21 06:18:02;;;;;;;;;0.00;0.00;;;;;0.03;92.00;98515.19;4921146;28;102832;-78
2022/12/21 06:20:31;;;;;;;;;2.50;1.00;;;;;0.03;91.17;98517.84;4927511;28;102459;-77
2022/12/21 06:22:58;;;;;;;;;0.00;0.00;;;;;0.14;91.33;98537.16;4929792;28;103892;-77
2022/12/21 06:25:25;;;;;;;;;1.50;1.00;;;;;0.18;91.48;98537.75;4938111;28;110434;-74
2022/12/21 06:27:52;;;;;;;;;0.50;0.00;;;;;0.14;91.48;98525.66;4936965;28;102317;-77
2022/12/21 06:30:19;;;;;;;;;0.00;0.00;;;;;0.23;91.51;98532.81;4936450;28;102242;-78
2022/12/21 06:32:46;;;;;;;;;2.00;1.00;;;;;0.23;91.83;98519.53;4918186;28;104114;-77
2022/12/21 06:35:13;;;;;;;;;1.75;1.00;;;;;0.27;91.52;98520.97;4934934;28;102011;-77
2022/12/21 06:37:40;;;;;;;;;1.25;1.00;;;;;0.31;91.89;98517.03;4937086;28;106654;-77
2022/12/21 06:40:08;;;;;;;;;0.75;0.75;;;;;0.33;93.24;98504.44;4936870;28;102287;-77
2022/12/21 06:42:35;;;;;;;;;1.00;1.00;;;;;0.38;92.91;98512.84;4935070;28;104054;-77
2022/12/21 06:45:02;;;;;;;;;0.75;0.75;;;;;0.36;92.53;98498.84;4936734;28;102089;-77
2022/12/21 06:47:29;;;;;;;;;0.00;0.00;;;;;0.45;92.12;98500.69;4922370;28;102220;-76
2022/12/21 06:49:55;;;;;;;;;0.75;0.00;;;;;0.50;92.50;98518.84;4936893;28;104178;-77
2022/12/21 06:52:22;;;;;;;;;0.50;0.50;;;;;0.49;92.23;98515.38;4936670;28;103976;-77
2022/12/21 06:54:49;;;;;;;;;2.00;1.00;;;;;0.57;92.39;98517.31;4931051;28;102445;-76
2022/12/21 06:57:16;;;;;;;;;1.00;1.00;;;;;0.59;92.09;98518.00;4923402;28;101959;-76
2022/12/21 06:59:43;;;;;;;;;1.00;0.00;;;;;0.60;91.94;98504.56;4937736;28;102263;-76
2022/12/21 07:02:10;;;;;;;;;2.50;0.00;;;;;0.63;92.40;98509.59;4929406;28;104051;-77
2022/12/21 07:04:37;;;;;;;;;0.75;0.00;;;;;0.63;92.39;98506.94;4926832;28;102274;-77
2022/12/21 07:07:05;;;;;;;;;0.75;0.75;;;;;0.64;91.68;98491.81;4935348;28;102266;-77
2022/12/21 07:09:32;;;;;;;;;0.50;0.00;;;;;0.65;92.15;98482.88;4937215;28;102315;-77
2022/12/21 07:11:58;;;;;;;;;1.00;1.00;;;;;0.61;91.93;98498.28;4934849;28;106911;-77
2022/12/21 07:14:25;;;;;;;;;1.25;0.00;;;;;0.68;91.66;98485.22;4942645;28;105895;-77
2022/12/21 07:16:52;;;;;;;;;1.00;0.25;;;;;0.71;91.44;98499.13;4939146;28;101979;-77
2022/12/21 07:19:19;;;;;;;;;3.50;0.75;;;;;0.76;91.74;98499.53;4939146;28;102068;-77
2022/12/21 07:21:46;;;;;;;;;2.00;0.00;;;;;0.80;92.41;98498.25;4936359;28;104090;-77
2022/12/21 07:24:13;;;;;;;;;0.00;0.00;;;;;0.82;91.83;98490.97;4932088;28;102322;-77
2022/12/21 07:26:40;;;;;;;;;1.25;0.00;;;;;0.84;91.12;98488.16;4941320;28;101948;-77
2022/12/21 07:29:10;;;;;;;;;0.00;0.00;;;;;0.85;91.78;98489.84;4941157;28;102349;-77
2022/12/21 07:31:37;;;;;;;;;1.00;0.00;;;;;0.86;90.60;98503.00;4938836;28;103994;-77
2022/12/21 07:34:04;;;;;;;;;0.25;0.00;;;;;0.88;90.50;98493.06;4939404;28;102188;-77
2022/12/21 07:36:31;;;;;;;;;0.00;0.00;;;;;0.87;91.61;98499.38;4938616;28;108717;-77
2022/12/21 07:38:58;;;;;;;;;0.00;0.00;;;;;0.94;91.23;98498.81;4934220;28;102182;-77
2022/12/21 07:41:25;;;;;;;;;0.50;0.00;;;;;0.96;91.01;98513.63;4936622;28;104000;-77
2022/12/21 07:43:52;;;;;;;;;0.00;0.00;;;;;0.99;90.55;98509.88;4940325;28;101983;-77
2022/12/21 07:46:19;;;;;;;;;0.00;0.00;;;;;0.99;91.46;98499.22;4909145;28;102146;-77
2022/12/21 07:48:47;;;;;;;;;1.00;0.00;;;;;0.99;91.18;98496.56;4931663;28;102352;-77
2022/12/21 07:51:14;;;;;;;;;1.00;0.00;;;;;1.02;91.17;98497.09;4934873;28;104185;-77
2022/12/21 07:53:41;;;;;;;;;0.25;0.25;;;;;1.01;91.21;98490.09;4937214;28;101967;-77
2022/12/21 07:56:17;;;;;;;;;1.00;0.00;;;;;1.00;90.80;98488.41;4938953;28;102204;-77
2022/12/21 07:58:44;;;;;;;;;1.00;1.00;;;;;1.05;91.18;98490.63;4941257;28;102124;-78
2022/12/21 08:01:14;;;;;;;;;0.00;0.00;;;;;1.11;91.53;98492.72;4938294;28;103949;-77
2022/12/21 08:03:47;;;;;;;;;0.75;0.00;;;;;1.13;91.07;98488.09;4932972;28;102149;-77
2022/12/21 08:06:15;;;;;;;;;0.00;0.00;;;;;1.13;90.98;98488.09;4938291;28;102110;-78
2022/12/21 08:08:43;;;;;;;;;1.00;0.00;;;;;1.14;90.72;98495.09;4938301;28;102121;-77
2022/12/21 08:11:13;;;;;;;;;0.25;0.25;;;;;1.15;91.20;98491.44;4933848;28;103984;-77
2022/12/21 08:13:41;;;;;;;;;1.50;0.00;;;;;1.14;91.23;98487.09;4929519;28;103191;-77
2022/12/21 08:16:11;;;;;;;;;1.00;0.00;;;;;1.14;90.99;98487.09;4936800;28;101932;-77
2022/12/21 08:18:38;;;;;;;;;1.00;0.75;;;;;1.08;90.56;98472.53;4937005;28;102427;-77
2022/12/21 08:21:05;;;;;;;;;1.00;0.00;;;;;1.20;90.43;98479.38;4936818;28;104103;-77
2022/12/21 08:23:33;;;;;;;;;0.50;0.00;;;;;1.26;89.94;98483.31;4927635;28;102274;-77
2022/12/21 08:26:05;;;;;;;;;1.00;0.50;;;;;1.27;90.57;98485.81;4936385;28;102001;-77
2022/12/21 08:28:32;;;;;;;;;0.75;0.75;;;;;1.34;89.87;98486.06;4940367;28;101924;-77
2022/12/21 08:31:04;;;;;;;;;0.00;0.00;;;;;1.21;90.09;98458.94;4934413;28;104016;-77
2022/12/21 08:33:32;;;;;;;;;1.00;0.00;;;;;1.33;89.25;98474.56;4936654;28;102591;-77
2022/12/21 08:35:59;;;;;;;;;0.75;0.00;;;;;1.39;89.18;98475.81;4935875;28;102033;-78
2022/12/21 08:38:26;;;;;;;;;1.25;1.00;;;;;1.47;89.19;98475.91;4938566;28;105200;-77
2022/12/21 08:41:13;;;;;;;;;0.00;0.00;;;;;1.56;89.75;98479.53;4933861;28;109685;-77
2022/12/21 08:43:40;;;;;;;;;0.50;0.50;;;;;1.58;88.78;98482.88;4934257;28;102306;-77
2022/12/21 08:46:10;;;;;;;;;0.50;0.50;;;;;1.63;88.40;98481.44;4927484;28;101962;-77
2022/12/21 08:48:37;;;;;;;;;0.00;0.00;;;;;1.64;87.64;98476.94;4932808;28;102332;-77
2022/12/21 08:51:07;;;;;;;;;2.50;2.00;;;;;1.68;86.54;98484.50;4934363;28;104073;-77
2022/12/21 08:53:35;;;;;;;;;0.00;0.00;;;;;1.75;87.29;98477.63;4935265;28;102357;-77
2022/12/21 08:56:03;;;;;;;;;1.75;1.00;;;;;1.82;87.49;98471.66;4936278;28;102007;-77
2022/12/21 08:58:30;;;;;;;;;2.00;1.00;;;;;1.88;86.44;98492.41;4936506;28;102160;-77
2022/12/21 09:00:57;;;;;;;;;1.00;1.00;;;;;1.94;86.38;98487.28;4928918;28;104184;-77
2022/12/21 09:03:26;;;;;;;;;1.00;1.00;;;;;2.07;88.12;98484.28;4929646;28;102268;-77
2022/12/21 09:05:55;;;;;;;;;0.50;0.50;;;;;2.14;86.46;98488.88;4936167;28;102536;-78
2022/12/21 09:08:31;;;;;;;;;2.00;1.00;;;;;2.19;87.26;98480.41;4935856;28;102187;-75
2022/12/21 09:11:04;;;;;;;;;0.50;0.50;;;;;2.25;87.07;98490.50;4917167;28;104170;-75
2022/12/21 09:13:31;;;;;;;;;2.50;1.00;;;;;2.30;85.65;98474.84;4888618;28;1327563;-75
2022/12/21 09:15:59;;;;;;;;;1.25;1.00;;;;;2.39;85.92;98471.25;4936880;28;102210;-75
2022/12/21 09:18:26;;;;;;;;;1.00;0.75;;;;;2.47;86.31;98467.84;4940847;28;103829;-76
2022/12/21 09:20:55;;;;;;;;;2.25;1.00;;;;;2.45;85.39;98457.31;4936474;28;108635;-77
2022/12/21 09:23:22;;;;;;;;;1.75;1.75;;;;;2.53;84.63;98464.53;4936887;28;101951;-77
2022/12/21 09:25:49;;;;;;;;;2.00;0.50;;;;;2.52;85.71;98458.34;4936430;28;102314;-77
2022/12/21 09:28:16;;;;;;;;;2.25;1.25;;;;;2.58;84.80;98472.94;4936469;28;102280;-77
2022/12/21 09:30:43;;;;;;;;;1.00;1.00;;;;;2.59;84.87;98479.94;4934875;28;103941;-77
2022/12/21 09:33:10;;;;;;;;;2.00;1.00;;;;;2.60;83.66;98477.13;4934406;28;102367;-77
2022/12/21 09:35:38;;;;;;;;;1.00;1.00;;;;;2.55;82.67;98473.25;4936620;28;102156;-76
2022/12/21 09:38:05;;;;;;;;;3.50;1.50;;;;;2.45;82.32;98469.81;4928583;28;102774;-77
2022/12/21 09:40:33;;;;;;;;;5.75;4.00;;;;;2.44;84.14;98465.47;4933081;28;104007;-77
2022/12/21 09:43:37;;;;;;;;;4.50;2.00;;;;;2.44;82.87;98454.78;4935569;28;102204;-75
2022/12/21 09:46:11;;;;;;;;;3.00;3.00;;;;;2.38;83.35;98455.41;4922577;28;102280;-76
2022/12/21 09:48:45;;;;;;;;;5.00;5.00;;;;;2.39;82.66;98454.41;4924979;28;102318;-77
2022/12/21 09:51:11;;;;;;;;;5.00;2.50;;;;;2.43;83.83;98448.59;4934465;28;104181;-78
2022/12/21 09:54:00;;;;;;;;;3.00;2.00;;;;;2.47;84.50;98446.50;4936166;28;102404;-77
2022/12/21 09:56:29;;;;;;;;;3.50;3.50;;;;;2.47;82.56;98449.16;4918404;28;102009;-75
2022/12/21 09:59:01;;;;;;;;;5.75;3.00;;;;;2.50;83.64;98451.50;4938959;28;102036;-77
2022/12/21 10:01:28;;;;;;;;;7.25;3.00;;;;;2.53;81.69;98438.69;4933639;28;108555;-76
2022/12/21 10:04:23;;;;;;;;;5.00;2.00;;;;;2.66;83.32;98464.97;4922131;28;102182;-77
2022/12/21 10:07:19;;;;;;;;;1.00;1.00;;;;;2.69;81.90;98454.84;4922601;28;102138;-78
2022/12/21 10:10:25;;;;;;;;;1.00;0.75;;;;;2.72;81.93;98463.53;4936550;28;102427;-76
2022/12/21 10:12:52;;;;;;;;;3.50;1.50;;;;;2.68;81.22;98458.50;4928783;28;107696;-76
2022/12/21 10:15:30;;;;;;;;;4.00;2.50;;;;;2.70;81.07;98453.84;4905052;28;102043;-77
2022/12/21 10:18:31;;;;;;;;;4.00;2.00;;;;;2.75;82.30;98450.69;4929278;28;102105;-75
2022/12/21 10:21:19;;;;;;;;;2.25;2.25;;;;;2.77;82.14;98445.22;4881477;28;102346;-76
2022/12/21 10:23:50;;;;;;;;;6.25;2.00;;;;;2.83;81.36;98447.28;4916308;28;104007;-77
2022/12/21 10:26:24;;;;;;;;;2.00;2.00;;;;;2.84;81.35;98446.25;4924447;28;102187;-77
2022/12/21 10:29:15;;;;;;;;;4.50;2.00;;;;;2.89;82.19;98438.63;4917964;28;104517;-77
2022/12/21 10:31:45;;;;;;;;;1.25;1.25;;;;;2.89;81.25;98443.97;4921273;28;101953;-77
2022/12/21 10:34:34;;;;;;;;;3.75;2.50;;;;;2.84;81.79;98432.91;4922077;28;104190;-79
2022/12/21 10:37:09;;;;;;;;;3.00;3.00;;;;;2.83;79.96;98428.59;4913002;28;102013;-78
2022/12/21 10:39:36;;;;;;;;;0.50;0.25;;;;;2.79;82.89;98433.41;4932414;28;102309;-78
2022/12/21 10:42:03;;;;;;;;;5.25;3.00;;;;;2.77;81.12;98439.88;4925149;28;102057;-78
2022/12/21 10:44:39;;;;;;;;;3.00;3.00;;;;;2.77;82.71;98435.38;4924148;28;104203;-78
2022/12/21 10:47:24;;;;;;;;;1.00;1.00;;;;;2.70;81.74;98432.47;4916414;28;103026;-77
2022/12/21 10:50:03;;;;;;;;;2.00;2.00;;;;;2.60;81.56;98433.59;4917856;28;102208;-77
2022/12/21 10:52:39;;;;;;;;;2.75;2.25;;;;;2.60;81.29;98429.09;4920396;28;102292;-78
2022/12/21 10:55:25;;;;;;;;;6.25;2.50;;;;;2.56;81.53;98422.41;4921388;28;104158;-76
2022/12/21 10:58:18;;;;;;;;;5.00;3.00;;;;;2.48;81.97;98416.13;4926151;28;101961;-77
2022/12/21 11:01:00;;;;;;;;;2.25;2.00;;;;;2.55;82.27;98420.72;4919729;28;102017;-76
2022/12/21 11:03:36;;;;;;;;;4.50;3.00;;;;;2.49;81.99;98404.47;4904904;28;102942;-77
2022/12/21 11:06:16;;;;;;;;;2.00;1.75;;;;;2.56;84.08;98406.38;4916681;28;104127;-77
2022/12/21 11:08:51;;;;;;;;;2.00;1.00;;;;;2.63;84.82;98396.75;4895267;28;102210;-77
2022/12/21 11:11:37;;;;;;;;;1.00;1.00;;;;;2.65;85.29;98394.78;4922479;28;102148;-77
2022/12/21 11:14:15;;;;;;;;;2.50;1.00;;;;;2.65;84.80;98383.25;4914421;28;102316;-77
2022/12/21 11:16:47;;;;;;;;;2.50;1.50;;;;;2.73;85.28;98387.81;4919538;28;104487;-77
2022/12/21 11:19:17;;;;;;;;;1.00;1.00;;;;;2.81;84.45;98393.19;4933092;28;102351;-76
2022/12/21 11:21:55;;;;;;;;;0.00;0.00;;;;;2.92;82.66;98383.09;4933198;28;102021;-77
2022/12/21 11:24:30;;;;;;;;;0.00;0.00;;;;;3.05;82.92;98390.66;4906043;28;102044;-77
2022/12/21 11:27:01;;;;;;;;;4.50;0.75;;;;;3.11;83.35;98382.00;4903555;28;108906;-75
2022/12/21 11:29:38;;;;;;;;;3.75;1.00;;;;;3.13;83.39;98380.84;4934951;28;101986;-77
2022/12/21 11:32:08;;;;;;;;;2.25;1.75;;;;;3.20;84.21;98389.06;4929545;28;102046;-77
2022/12/21 11:34:39;;;;;;;;;1.00;1.00;;;;;3.18;83.13;98359.00;4930091;28;102088;-76
2022/12/21 11:37:22;;;;;;;;;2.00;1.00;;;;;3.24;82.17;98368.22;4934656;28;104004;-76
2022/12/21 11:39:49;;;;;;;;;0.00;0.00;;;;;3.32;82.57;98389.63;4915197;28;102402;-76
2022/12/21 11:42:19;;;;;;;;;1.00;1.00;;;;;3.35;84.55;98375.94;4928523;28;102430;-76
2022/12/21 11:44:48;;;;;;;;;0.75;0.75;;;;;3.37;84.03;98388.16;4907353;28;102020;-76
2022/12/21 11:47:40;;;;;;;;;0.25;0.00;;;;;3.38;83.19;98380.94;4931827;28;104237;-76
2022/12/21 11:50:43;;;;;;;;;1.00;1.00;;;;;3.29;81.72;98390.75;4930065;28;104382;-77
2022/12/21 11:53:28;;;;;;;;;3.00;1.00;;;;;3.13;81.50;98369.34;4911351;28;102310;-77
2022/12/21 11:56:07;;;;;;;;;1.00;1.00;;;;;3.21;81.23;98364.03;4925831;28;101991;-76
2022/12/21 11:58:40;;;;;;;;;1.75;1.00;;;;;3.20;80.86;98367.69;4924603;28;109604;-77
2022/12/21 12:01:20;;;;;;;;;2.00;1.50;;;;;3.22;81.58;98364.88;4929923;28;103031;-77
2022/12/21 12:04:24;;;;;;;;;2.75;2.00;;;;;3.11;79.67;98361.47;4926298;28;102002;-77
2022/12/21 12:07:02;;;;;;;;;5.00;3.00;;;;;2.89;81.25;98350.50;4937248;28;102367;-76